sensor_id;sensor_type;location;lat;lon;timestamp;pressure;altitude;pressure_sealevel;temperature;humidity
5883;BME280;2967;51.488;6.618;2023-06-14T00:03:54;101004.06;;;20.95;60.60
5883;BME280;2967;51.488;6.618;2023-06-14T00:09:03;100904.63;;;20.44;59.38
5883;BME280;2967;51.488;6.618;2023-06-14T00:14:07;101030.78;;;21.30;58.94
5883;BME280;2967;51.488;6.618;2023-06-14T00:19:11;101091.00;;;21.63;59.47
5883;BME280;2967;51.488;6.618;2023-06-14T00:24:17;101068.47;;;21.30;59.84
5883;BME280;2967;51.488;6.618;2023-06-14T00:29:20;101068.00;;;21.35;59.86
5883;BME280;2967;51.488;6.618;2023-06-14T00:34:24;101085.34;;;21.40;59.47
5883;BME280;2967;51.488;6.618;2023-06-14T00:39:27;101110.25;;;21.42;59.79
5883;BME280;2967;51.488;6.618;2023-06-14T00:44:30;101107.94;;;21.47;59.59
5883;BME280;2967;51.488;6.618;2023-06-14T00:49:34;101090.75;;;21.15;59.35
5883;BME280;2967;51.488;6.618;2023-06-14T00:54:37;101116.66;;;21.16;59.93
5883;BME280;2967;51.488;6.618;2023-06-14T00:59:43;101110.81;;;20.95;60.18
5883;BME280;2967;51.488;6.618;2023-06-14T01:04:49;101136.16;;;21.10;60.81
5883;BME280;2967;51.488;6.618;2023-06-14T01:10:13;101066.63;;;20.80;60.62
5883;BME280;2967;51.488;6.618;2023-06-14T01:15:20;101043.56;;;20.52;59.89
5883;BME280;2967;51.488;6.618;2023-06-14T01:20:28;101090.53;;;20.83;60.53
5883;BME280;2967;51.488;6.618;2023-06-14T01:25:33;101116.88;;;20.97;60.64
5883;BME280;2967;51.488;6.618;2023-06-14T01:30:45;101074.75;;;20.45;60.97
5883;BME280;2967;51.488;6.618;2023-06-14T01:35:50;101123.03;;;20.72;61.75
5883;BME280;2967;51.488;6.618;2023-06-14T01:40:56;101121.22;;;20.37;61.73
5883;BME280;2967;51.488;6.618;2023-06-14T01:46:01;101101.47;;;20.29;61.71
5883;BME280;2967;51.488;6.618;2023-06-14T01:51:05;101007.13;;;19.35;63.57
5883;BME280;2967;51.488;6.618;2023-06-14T01:56:12;101120.19;;;20.03;64.55
5883;BME280;2967;51.488;6.618;2023-06-14T02:01:15;101080.84;;;19.85;64.50
5883;BME280;2967;51.488;6.618;2023-06-14T02:06:20;101043.34;;;19.12;65.38
5883;BME280;2967;51.488;6.618;2023-06-14T02:11:25;101093.44;;;19.11;67.12
5883;BME280;2967;51.488;6.618;2023-06-14T02:16:28;100874.22;;;17.68;66.15
5883;BME280;2967;51.488;6.618;2023-06-14T02:22:09;100987.44;;;17.97;68.76
5883;BME280;2967;51.488;6.618;2023-06-14T02:27:14;101131.03;;;19.02;67.32
5883;BME280;2967;51.488;6.618;2023-06-14T02:32:18;101019.56;;;18.16;68.18
5883;BME280;2967;51.488;6.618;2023-06-14T02:37:21;101091.72;;;18.27;69.54
5883;BME280;2967;51.488;6.618;2023-06-14T02:42:25;100821.25;;;16.95;68.85
5883;BME280;2967;51.488;6.618;2023-06-14T02:47:28;101141.22;;;18.79;68.75
5883;BME280;2967;51.488;6.618;2023-06-14T02:52:32;101122.22;;;18.54;69.00
5883;BME280;2967;51.488;6.618;2023-06-14T02:57:36;100979.00;;;17.82;68.50
5883;BME280;2967;51.488;6.618;2023-06-14T03:02:44;101100.78;;;18.45;69.71
5883;BME280;2967;51.488;6.618;2023-06-14T03:07:48;101119.91;;;18.02;75.13
5883;BME280;2967;51.488;6.618;2023-06-14T03:13:08;101022.53;;;17.75;72.95
5883;BME280;2967;51.488;6.618;2023-06-14T03:18:12;101171.84;;;18.58;75.48
5883;BME280;2967;51.488;6.618;2023-06-14T03:23:16;101172.69;;;18.59;73.67
5883;BME280;2967;51.488;6.618;2023-06-14T03:28:21;101168.16;;;18.31;72.52
5883;BME280;2967;51.488;6.618;2023-06-14T03:33:25;101166.91;;;18.63;70.49
5883;BME280;2967;51.488;6.618;2023-06-14T03:38:29;101152.09;;;18.31;74.93
5883;BME280;2967;51.488;6.618;2023-06-14T03:43:34;101072.50;;;17.65;73.84
5883;BME280;2967;51.488;6.618;2023-06-14T03:48:38;101134.53;;;17.98;74.44
5883;BME280;2967;51.488;6.618;2023-06-14T03:53:42;101120.19;;;18.18;69.50
5883;BME280;2967;51.488;6.618;2023-06-14T03:59:06;101195.53;;;19.10;67.55
5883;BME280;2967;51.488;6.618;2023-06-14T04:04:09;101202.84;;;19.17;67.44
5883;BME280;2967;51.488;6.618;2023-06-14T04:09:12;101201.41;;;19.32;66.31
5883;BME280;2967;51.488;6.618;2023-06-14T04:14:17;101157.13;;;19.19;65.07
5883;BME280;2967;51.488;6.618;2023-06-14T04:19:21;101218.91;;;19.46;65.00
5883;BME280;2967;51.488;6.618;2023-06-14T04:24:24;101213.00;;;19.33;65.93
5883;BME280;2967;51.488;6.618;2023-06-14T04:29:31;101226.66;;;19.49;65.35
5883;BME280;2967;51.488;6.618;2023-06-14T04:34:39;101225.94;;;19.56;65.73
5883;BME280;2967;51.488;6.618;2023-06-14T04:39:43;101209.00;;;19.56;64.87
5883;BME280;2967;51.488;6.618;2023-06-14T04:44:48;101235.19;;;19.81;64.67
5883;BME280;2967;51.488;6.618;2023-06-14T04:49:51;101239.69;;;19.80;64.91
5883;BME280;2967;51.488;6.618;2023-06-14T04:54:55;101217.53;;;19.78;64.50
5883;BME280;2967;51.488;6.618;2023-06-14T05:00:02;101203.31;;;19.68;64.09
5883;BME280;2967;51.488;6.618;2023-06-14T05:05:11;101245.84;;;20.00;63.87
5883;BME280;2967;51.488;6.618;2023-06-14T05:10:14;101230.03;;;20.06;63.86
5883;BME280;2967;51.488;6.618;2023-06-14T05:15:21;101257.06;;;20.22;63.84
5883;BME280;2967;51.488;6.618;2023-06-14T05:20:27;101209.09;;;20.00;63.49
5883;BME280;2967;51.488;6.618;2023-06-14T05:25:31;101274.75;;;20.52;62.02
5883;BME280;2967;51.488;6.618;2023-06-14T05:30:39;101208.47;;;20.16;61.72
5883;BME280;2967;51.488;6.618;2023-06-14T05:35:45;101279.44;;;20.67;62.42
5883;BME280;2967;51.488;6.618;2023-06-14T05:40:48;101237.94;;;20.52;63.64
5883;BME280;2967;51.488;6.618;2023-06-14T05:45:52;101241.56;;;20.61;64.11
5883;BME280;2967;51.488;6.618;2023-06-14T05:50:56;101258.84;;;20.76;62.23
5883;BME280;2967;51.488;6.618;2023-06-14T05:55:59;101295.47;;;21.04;61.95
5883;BME280;2967;51.488;6.618;2023-06-14T06:01:03;101293.34;;;21.07;62.26
5883;BME280;2967;51.488;6.618;2023-06-14T06:06:07;101298.94;;;21.14;62.63
5883;BME280;2967;51.488;6.618;2023-06-14T06:11:15;101270.41;;;21.03;61.84
5883;BME280;2967;51.488;6.618;2023-06-14T06:16:19;101303.69;;;21.37;62.55
5883;BME280;2967;51.488;6.618;2023-06-14T06:21:22;101298.38;;;21.45;59.65
5883;BME280;2967;51.488;6.618;2023-06-14T06:26:25;101302.63;;;21.73;60.17
5883;BME280;2967;51.488;6.618;2023-06-14T06:31:29;101278.88;;;21.68;58.87
5883;BME280;2967;51.488;6.618;2023-06-14T06:36:33;101317.44;;;21.94;57.45
5883;BME280;2967;51.488;6.618;2023-06-14T06:41:37;101321.81;;;21.95;58.79
5883;BME280;2967;51.488;6.618;2023-06-14T06:46:43;101320.13;;;21.94;57.99
5883;BME280;2967;51.488;6.618;2023-06-14T06:51:59;101340.88;;;22.02;58.39
5883;BME280;2967;51.488;6.618;2023-06-14T06:57:03;101339.09;;;22.10;57.18
5883;BME280;2967;51.488;6.618;2023-06-14T07:02:09;101289.22;;;21.81;54.07
5883;BME280;2967;51.488;6.618;2023-06-14T07:07:12;101350.09;;;22.17;54.40
5883;BME280;2967;51.488;6.618;2023-06-14T07:12:14;101305.81;;;21.94;53.92
5883;BME280;2967;51.488;6.618;2023-06-14T07:17:19;101363.34;;;22.36;52.29
5883;BME280;2967;51.488;6.618;2023-06-14T07:22:21;101343.56;;;22.27;52.99
5883;BME280;2967;51.488;6.618;2023-06-14T07:27:24;101364.91;;;22.46;54.05
5883;BME280;2967;51.488;6.618;2023-06-14T07:32:28;101357.22;;;22.51;52.60
5883;BME280;2967;51.488;6.618;2023-06-14T07:37:31;101338.34;;;22.51;52.97
5883;BME280;2967;51.488;6.618;2023-06-14T07:42:34;101353.06;;;22.65;54.13
5883;BME280;2967;51.488;6.618;2023-06-14T07:47:39;101339.69;;;22.55;53.06
5883;BME280;2967;51.488;6.618;2023-06-14T07:52:42;101359.66;;;22.78;53.33
5883;BME280;2967;51.488;6.618;2023-06-14T07:57:45;101357.63;;;22.72;52.54
5883;BME280;2967;51.488;6.618;2023-06-14T08:02:49;101373.50;;;22.83;52.83
5883;BME280;2967;51.488;6.618;2023-06-14T08:07:59;101369.16;;;22.98;52.50
5883;BME280;2967;51.488;6.618;2023-06-14T08:13:02;101367.84;;;23.02;51.95
5883;BME280;2967;51.488;6.618;2023-06-14T08:18:07;101369.84;;;23.08;53.64
5883;BME280;2967;51.488;6.618;2023-06-14T08:23:10;101368.03;;;23.09;52.75
5883;BME280;2967;51.488;6.618;2023-06-14T08:28:13;101374.25;;;23.09;52.67
5883;BME280;2967;51.488;6.618;2023-06-14T08:33:17;101366.38;;;23.16;53.56
5883;BME280;2967;51.488;6.618;2023-06-14T08:38:20;101377.66;;;23.19;53.50
5883;BME280;2967;51.488;6.618;2023-06-14T08:43:22;101372.97;;;23.29;52.62
5883;BME280;2967;51.488;6.618;2023-06-14T08:48:27;101361.34;;;23.29;53.90
5883;BME280;2967;51.488;6.618;2023-06-14T08:53:31;101359.97;;;23.33;53.41
5883;BME280;2967;51.488;6.618;2023-06-14T08:58:40;101355.78;;;23.30;54.86
5883;BME280;2967;51.488;6.618;2023-06-14T09:03:46;101373.66;;;23.31;52.43
5883;BME280;2967;51.488;6.618;2023-06-14T09:08:50;101371.97;;;23.38;50.71
5883;BME280;2967;51.488;6.618;2023-06-14T09:13:53;101377.38;;;23.38;53.03
5883;BME280;2967;51.488;6.618;2023-06-14T09:18:57;101374.00;;;23.36;53.83
5883;BME280;2967;51.488;6.618;2023-06-14T09:24:01;101316.22;;;23.05;52.93
5883;BME280;2967;51.488;6.618;2023-06-14T09:29:38;101344.28;;;23.20;54.66
5883;BME280;2967;51.488;6.618;2023-06-14T09:34:42;101385.84;;;23.43;54.30
5883;BME280;2967;51.488;6.618;2023-06-14T09:39:51;101364.06;;;23.37;51.42
5883;BME280;2967;51.488;6.618;2023-06-14T09:44:55;101371.44;;;23.35;51.84
5883;BME280;2967;51.488;6.618;2023-06-14T09:49:59;101393.94;;;23.59;52.16
5883;BME280;2967;51.488;6.618;2023-06-14T09:55:11;101384.81;;;23.52;53.73
5883;BME280;2967;51.488;6.618;2023-06-14T10:00:17;101374.03;;;23.52;52.06
5883;BME280;2967;51.488;6.618;2023-06-14T10:05:22;101390.91;;;23.62;52.67
5883;BME280;2967;51.488;6.618;2023-06-14T10:10:28;101374.03;;;23.52;51.64
5883;BME280;2967;51.488;6.618;2023-06-14T10:15:36;101373.00;;;23.53;52.22
5883;BME280;2967;51.488;6.618;2023-06-14T10:20:50;101352.41;;;23.44;51.71
5883;BME280;2967;51.488;6.618;2023-06-14T10:25:56;101364.72;;;23.63;53.29
5883;BME280;2967;51.488;6.618;2023-06-14T10:31:05;101371.31;;;23.68;50.34
5883;BME280;2967;51.488;6.618;2023-06-14T10:36:24;101361.88;;;23.80;47.93
5883;BME280;2967;51.488;6.618;2023-06-14T10:41:29;101385.34;;;24.04;50.70
5883;BME280;2967;51.488;6.618;2023-06-14T10:46:32;101380.78;;;24.04;48.43
5883;BME280;2967;51.488;6.618;2023-06-14T10:51:41;101365.94;;;24.00;50.09
5883;BME280;2967;51.488;6.618;2023-06-14T10:56:49;101373.84;;;24.02;49.19
5883;BME280;2967;51.488;6.618;2023-06-14T11:01:58;101351.22;;;23.95;51.61
5883;BME280;2967;51.488;6.618;2023-06-14T11:07:21;101375.38;;;24.12;48.06
5883;BME280;2967;51.488;6.618;2023-06-14T11:12:31;101374.34;;;24.13;48.48
5883;BME280;2967;51.488;6.618;2023-06-14T11:17:36;101379.69;;;24.29;47.90
5883;BME280;2967;51.488;6.618;2023-06-14T11:22:41;101367.19;;;24.36;49.02
5883;BME280;2967;51.488;6.618;2023-06-14T11:27:45;101335.88;;;24.42;51.81
5883;BME280;2967;51.488;6.618;2023-06-14T11:32:49;101369.41;;;24.79;47.69
5883;BME280;2967;51.488;6.618;2023-06-14T11:37:57;101369.63;;;25.00;46.37
5883;BME280;2967;51.488;6.618;2023-06-14T11:43:01;101363.34;;;25.07;47.74
5883;BME280;2967;51.488;6.618;2023-06-14T11:48:08;101376.47;;;25.26;44.90
5883;BME280;2967;51.488;6.618;2023-06-14T11:53:13;101366.09;;;25.30;46.86
5883;BME280;2967;51.488;6.618;2023-06-14T11:58:18;101374.44;;;25.51;45.54
5883;BME280;2967;51.488;6.618;2023-06-14T12:03:24;101278.00;;;25.11;45.51
5883;BME280;2967;51.488;6.618;2023-06-14T12:08:34;101342.84;;;25.58;48.20
5883;BME280;2967;51.488;6.618;2023-06-14T12:13:40;101372.06;;;25.93;43.00
5883;BME280;2967;51.488;6.618;2023-06-14T12:18:43;101364.66;;;26.01;43.68
5883;BME280;2967;51.488;6.618;2023-06-14T12:23:49;101319.13;;;25.97;43.51
5883;BME280;2967;51.488;6.618;2023-06-14T12:28:52;101363.28;;;26.49;45.40
5883;BME280;2967;51.488;6.618;2023-06-14T12:33:57;101365.47;;;26.53;43.78
5883;BME280;2967;51.488;6.618;2023-06-14T12:39:03;101359.00;;;26.69;44.18
5883;BME280;2967;51.488;6.618;2023-06-14T12:44:06;101375.28;;;26.83;41.68
5883;BME280;2967;51.488;6.618;2023-06-14T12:49:09;101348.69;;;26.79;42.38
5883;BME280;2967;51.488;6.618;2023-06-14T12:54:13;101343.03;;;26.95;43.56
5883;BME280;2967;51.488;6.618;2023-06-14T12:59:29;101364.97;;;27.29;43.78
5883;BME280;2967;51.488;6.618;2023-06-14T13:04:34;101369.66;;;27.56;42.07
5883;BME280;2967;51.488;6.618;2023-06-14T13:09:44;101375.56;;;27.80;41.88
5883;BME280;2967;51.488;6.618;2023-06-14T13:14:47;101359.06;;;27.81;40.53
5883;BME280;2967;51.488;6.618;2023-06-14T13:20:04;101354.16;;;27.98;39.57
5883;BME280;2967;51.488;6.618;2023-06-14T13:25:12;101371.50;;;28.24;38.16
5883;BME280;2967;51.488;6.618;2023-06-14T13:30:17;101365.13;;;28.38;37.89
5883;BME280;2967;51.488;6.618;2023-06-14T13:35:20;101373.06;;;28.74;39.27
5883;BME280;2967;51.488;6.618;2023-06-14T13:40:24;101371.69;;;28.91;38.13
5883;BME280;2967;51.488;6.618;2023-06-14T13:45:28;101356.88;;;29.06;37.76
5883;BME280;2967;51.488;6.618;2023-06-14T13:50:42;101197.56;;;28.29;36.62
5883;BME280;2967;51.488;6.618;2023-06-14T13:55:50;101302.00;;;29.22;36.74
5883;BME280;2967;51.488;6.618;2023-06-14T14:00:53;101335.00;;;29.79;36.60
5883;BME280;2967;51.488;6.618;2023-06-14T14:05:58;101358.28;;;29.95;36.05
5883;BME280;2967;51.488;6.618;2023-06-14T14:11:05;101271.44;;;29.79;35.73
5883;BME280;2967;51.488;6.618;2023-06-14T14:16:15;101332.91;;;30.83;33.90
5883;BME280;2967;51.488;6.618;2023-06-14T14:21:18;101348.59;;;30.94;33.25
5883;BME280;2967;51.488;6.618;2023-06-14T14:26:25;101285.28;;;30.67;35.46
5883;BME280;2967;51.488;6.618;2023-06-14T14:31:28;101330.63;;;30.80;33.78
5883;BME280;2967;51.488;6.618;2023-06-14T14:36:34;101358.47;;;30.39;34.89
5883;BME280;2967;51.488;6.618;2023-06-14T14:41:46;101335.19;;;29.71;36.79
5883;BME280;2967;51.488;6.618;2023-06-14T14:46:49;101364.78;;;29.61;38.23
5883;BME280;2967;51.488;6.618;2023-06-14T14:51:56;101357.13;;;29.11;36.99
5883;BME280;2967;51.488;6.618;2023-06-14T14:57:23;101292.50;;;28.45;40.12
5883;BME280;2967;51.488;6.618;2023-06-14T15:02:26;101351.69;;;28.71;39.26
5883;BME280;2967;51.488;6.618;2023-06-14T15:07:32;101354.16;;;28.32;39.88
5883;BME280;2967;51.488;6.618;2023-06-14T15:12:37;101344.25;;;28.45;39.89
5883;BME280;2967;51.488;6.618;2023-06-14T15:17:40;101338.97;;;28.44;39.15
5883;BME280;2967;51.488;6.618;2023-06-14T15:22:52;101318.00;;;27.76;42.41
5883;BME280;2967;51.488;6.618;2023-06-14T15:27:59;101360.63;;;27.97;41.60
5883;BME280;2967;51.488;6.618;2023-06-14T15:33:04;101356.50;;;27.59;41.79
5883;BME280;2967;51.488;6.618;2023-06-14T15:38:06;101304.50;;;27.20;41.86
5883;BME280;2967;51.488;6.618;2023-06-14T15:43:11;101331.59;;;27.14;41.32
5883;BME280;2967;51.488;6.618;2023-06-14T15:48:16;101349.41;;;27.02;41.76
5883;BME280;2967;51.488;6.618;2023-06-14T15:53:20;101329.03;;;26.77;41.67
5883;BME280;2967;51.488;6.618;2023-06-14T15:58:25;101281.06;;;26.48;41.76
5883;BME280;2967;51.488;6.618;2023-06-14T16:03:28;101347.00;;;26.34;44.37
5883;BME280;2967;51.488;6.618;2023-06-14T16:08:31;101335.41;;;26.11;47.24
5883;BME280;2967;51.488;6.618;2023-06-14T16:13:55;101338.09;;;25.97;46.70
5883;BME280;2967;51.488;6.618;2023-06-14T16:18:58;101347.38;;;25.80;45.96
5883;BME280;2967;51.488;6.618;2023-06-14T16:24:00;101338.66;;;25.70;45.43
5883;BME280;2967;51.488;6.618;2023-06-14T16:29:04;101344.63;;;25.65;45.23
5883;BME280;2967;51.488;6.618;2023-06-14T16:34:07;101342.38;;;25.54;48.97
5883;BME280;2967;51.488;6.618;2023-06-14T16:39:12;101341.53;;;25.54;46.23
5883;BME280;2967;51.488;6.618;2023-06-14T16:44:16;101339.75;;;25.46;47.78
5883;BME280;2967;51.488;6.618;2023-06-14T16:49:20;101315.56;;;25.14;47.59
5883;BME280;2967;51.488;6.618;2023-06-14T16:54:22;101344.50;;;25.22;49.18
5883;BME280;2967;51.488;6.618;2023-06-14T16:59:26;101348.25;;;25.13;47.96
5883;BME280;2967;51.488;6.618;2023-06-14T17:04:29;101358.97;;;25.06;47.02
5883;BME280;2967;51.488;6.618;2023-06-14T17:09:32;101360.28;;;25.10;46.13
5883;BME280;2967;51.488;6.618;2023-06-14T17:14:36;101362.50;;;25.07;48.02
5883;BME280;2967;51.488;6.618;2023-06-14T17:19:39;101362.69;;;25.05;46.40
5883;BME280;2967;51.488;6.618;2023-06-14T17:24:41;101373.69;;;25.04;45.92
5883;BME280;2967;51.488;6.618;2023-06-14T17:29:46;101362.84;;;25.04;44.47
5883;BME280;2967;51.488;6.618;2023-06-14T17:34:49;101373.03;;;25.02;45.12
5883;BME280;2967;51.488;6.618;2023-06-14T17:39:52;101352.09;;;24.88;45.66
5883;BME280;2967;51.488;6.618;2023-06-14T17:44:56;101371.91;;;24.88;46.04
5883;BME280;2967;51.488;6.618;2023-06-14T17:49:59;101377.34;;;24.80;45.46
5883;BME280;2967;51.488;6.618;2023-06-14T17:55:04;101376.56;;;24.72;46.65
5883;BME280;2967;51.488;6.618;2023-06-14T18:00:10;101375.34;;;24.74;45.43
5883;BME280;2967;51.488;6.618;2023-06-14T18:05:13;101362.41;;;24.62;46.40
5883;BME280;2967;51.488;6.618;2023-06-14T18:10:16;101370.03;;;24.59;46.70
5883;BME280;2967;51.488;6.618;2023-06-14T18:15:21;101384.56;;;24.58;47.55
5883;BME280;2967;51.488;6.618;2023-06-14T18:20:24;101392.69;;;24.58;47.84
5883;BME280;2967;51.488;6.618;2023-06-14T18:25:27;101314.00;;;24.13;47.41
5883;BME280;2967;51.488;6.618;2023-06-14T18:30:31;101395.72;;;24.55;47.47
5883;BME280;2967;51.488;6.618;2023-06-14T18:35:34;101399.94;;;24.49;46.37
5883;BME280;2967;51.488;6.618;2023-06-14T18:40:36;101332.94;;;24.05;47.41
5883;BME280;2967;51.488;6.618;2023-06-14T18:45:40;101405.06;;;24.36;47.78
5883;BME280;2967;51.488;6.618;2023-06-14T18:50:44;101402.88;;;24.32;47.63
5883;BME280;2967;51.488;6.618;2023-06-14T18:55:47;101405.56;;;24.24;48.01
5883;BME280;2967;51.488;6.618;2023-06-14T19:00:51;101414.72;;;24.23;48.62
5883;BME280;2967;51.488;6.618;2023-06-14T19:05:54;101402.72;;;24.17;49.43
5883;BME280;2967;51.488;6.618;2023-06-14T19:10:59;101415.06;;;24.12;50.65
5883;BME280;2967;51.488;6.618;2023-06-14T19:16:03;101388.06;;;23.88;51.84
5883;BME280;2967;51.488;6.618;2023-06-14T19:21:06;101413.06;;;23.98;52.48
5883;BME280;2967;51.488;6.618;2023-06-14T19:26:09;101420.50;;;23.88;52.46
5883;BME280;2967;51.488;6.618;2023-06-14T19:31:13;101425.72;;;23.81;52.72
5883;BME280;2967;51.488;6.618;2023-06-14T19:36:16;101436.16;;;23.76;52.88
5883;BME280;2967;51.488;6.618;2023-06-14T19:41:19;101447.13;;;23.75;51.98
5883;BME280;2967;51.488;6.618;2023-06-14T19:46:23;101445.09;;;23.61;53.17
5883;BME280;2967;51.488;6.618;2023-06-14T19:51:27;101444.94;;;23.54;53.19
5883;BME280;2967;51.488;6.618;2023-06-14T19:56:31;101449.97;;;23.49;54.01
5883;BME280;2967;51.488;6.618;2023-06-14T20:01:35;101450.09;;;23.32;54.05
5883;BME280;2967;51.488;6.618;2023-06-14T20:06:38;101465.97;;;23.35;54.93
5883;BME280;2967;51.488;6.618;2023-06-14T20:11:41;101464.75;;;23.13;55.46
5883;BME280;2967;51.488;6.618;2023-06-14T20:16:45;101473.78;;;23.04;56.62
5883;BME280;2967;51.488;6.618;2023-06-14T20:21:48;101482.50;;;22.98;57.07
5883;BME280;2967;51.488;6.618;2023-06-14T20:26:51;101482.78;;;22.87;58.47
5883;BME280;2967;51.488;6.618;2023-06-14T20:31:55;101481.06;;;22.78;58.05
5883;BME280;2967;51.488;6.618;2023-06-14T20:36:58;101486.00;;;22.57;58.78
5883;BME280;2967;51.488;6.618;2023-06-14T20:42:00;101489.72;;;22.39;60.72
5883;BME280;2967;51.488;6.618;2023-06-14T20:47:05;101472.13;;;22.09;61.67
5883;BME280;2967;51.488;6.618;2023-06-14T20:52:14;101496.69;;;22.24;63.31
5883;BME280;2967;51.488;6.618;2023-06-14T20:57:17;101500.16;;;22.16;63.89
5883;BME280;2967;51.488;6.618;2023-06-14T21:02:24;101500.84;;;22.18;64.34
5883;BME280;2967;51.488;6.618;2023-06-14T21:07:27;101494.94;;;22.15;64.28
5883;BME280;2967;51.488;6.618;2023-06-14T21:12:29;101508.03;;;22.10;64.06
5883;BME280;2967;51.488;6.618;2023-06-14T21:17:34;101511.03;;;22.07;65.48
5883;BME280;2967;51.488;6.618;2023-06-14T21:22:37;101514.25;;;21.93;66.14
5883;BME280;2967;51.488;6.618;2023-06-14T21:27:39;101514.72;;;21.88;68.16
5883;BME280;2967;51.488;6.618;2023-06-14T21:32:43;101507.56;;;21.79;69.05
5883;BME280;2967;51.488;6.618;2023-06-14T21:37:49;101502.50;;;21.76;69.60
5883;BME280;2967;51.488;6.618;2023-06-14T21:42:51;101508.69;;;21.60;70.40
5883;BME280;2967;51.488;6.618;2023-06-14T21:47:55;101507.28;;;21.56;70.53
5883;BME280;2967;51.488;6.618;2023-06-14T21:52:58;101480.03;;;21.24;71.70
5883;BME280;2967;51.488;6.618;2023-06-14T21:58:01;101507.59;;;21.35;71.88
5883;BME280;2967;51.488;6.618;2023-06-14T22:03:05;101503.38;;;21.23;72.29
5883;BME280;2967;51.488;6.618;2023-06-14T22:08:08;101511.31;;;21.25;71.24
5883;BME280;2967;51.488;6.618;2023-06-14T22:13:11;101518.59;;;21.15;71.33
5883;BME280;2967;51.488;6.618;2023-06-14T22:18:16;101519.91;;;21.11;71.59
5883;BME280;2967;51.488;6.618;2023-06-14T22:23:19;101518.22;;;21.00;71.96
5883;BME280;2967;51.488;6.618;2023-06-14T22:28:22;101517.09;;;21.03;71.23
5883;BME280;2967;51.488;6.618;2023-06-14T22:33:26;101512.84;;;21.00;70.92
5883;BME280;2967;51.488;6.618;2023-06-14T22:38:29;101516.09;;;21.04;71.92
5883;BME280;2967;51.488;6.618;2023-06-14T22:43:32;101522.47;;;21.03;71.13
5883;BME280;2967;51.488;6.618;2023-06-14T22:48:37;101510.34;;;20.89;71.37
5883;BME280;2967;51.488;6.618;2023-06-14T22:53:47;101516.47;;;21.09;70.75
5883;BME280;2967;51.488;6.618;2023-06-14T22:58:50;101517.97;;;20.94;71.78
5883;BME280;2967;51.488;6.618;2023-06-14T23:03:56;101516.28;;;20.83;73.04
5883;BME280;2967;51.488;6.618;2023-06-14T23:08:59;101507.69;;;20.80;72.80
5883;BME280;2967;51.488;6.618;2023-06-14T23:14:05;101509.47;;;20.43;74.73
5883;BME280;2967;51.488;6.618;2023-06-14T23:19:10;101516.41;;;20.45;74.53
5883;BME280;2967;51.488;6.618;2023-06-14T23:24:13;101513.00;;;20.53;74.73
5883;BME280;2967;51.488;6.618;2023-06-14T23:29:18;101508.16;;;20.56;74.81
5883;BME280;2967;51.488;6.618;2023-06-14T23:34:22;101512.16;;;20.43;75.69
5883;BME280;2967;51.488;6.618;2023-06-14T23:39:27;101514.53;;;20.46;75.57
5883;BME280;2967;51.488;6.618;2023-06-14T23:44:30;101518.69;;;20.31;77.27
5883;BME280;2967;51.488;6.618;2023-06-14T23:49:39;101512.75;;;20.27;77.61
5883;BME280;2967;51.488;6.618;2023-06-14T23:54:42;101513.03;;;20.15;77.69
5883;BME280;2967;51.488;6.618;2023-06-14T23:59:47;101513.00;;;19.77;81.27
